createdAt,value
2022-10-13T00:01:40.263Z,6.60
2022-10-13T00:04:11.575Z,6.60
2022-10-13T00:06:41.828Z,6.60
2022-10-13T00:09:10.387Z,6.60
2022-10-13T00:11:38.923Z,6.60
2022-10-13T00:14:07.550Z,6.60
2022-10-13T00:16:36.074Z,6.60
2022-10-13T00:19:11.693Z,6.60
2022-10-13T00:21:42.778Z,6.60
2022-10-13T00:24:12.429Z,6.60
2022-10-13T00:26:41.272Z,6.60
2022-10-13T00:29:12.221Z,6.60
2022-10-13T00:31:41.285Z,6.60
2022-10-13T00:34:12.352Z,6.60
2022-10-13T00:36:40.926Z,6.60
2022-10-13T00:39:09.558Z,6.60
2022-10-13T00:41:38.913Z,6.60
2022-10-13T00:44:28.492Z,6.60
2022-10-13T00:46:57.308Z,6.60
2022-10-13T00:49:35.679Z,6.60
2022-10-13T00:52:04.423Z,6.60
2022-10-13T00:54:33.825Z,6.60
2022-10-13T00:57:05.277Z,6.60
2022-10-13T00:59:35.264Z,6.60
2022-10-13T01:02:04.211Z,6.70
2022-10-13T01:04:39.063Z,6.70
2022-10-13T01:07:08.839Z,6.70
2022-10-13T01:09:37.983Z,6.80
2022-10-13T01:12:16.041Z,6.80
2022-10-13T01:14:50.891Z,6.80
2022-10-13T01:17:30.241Z,6.80
2022-10-13T01:20:31.017Z,6.80
2022-10-13T01:23:19.876Z,6.80
2022-10-13T01:26:10.279Z,6.90
2022-10-13T01:28:59.210Z,6.90
2022-10-13T01:31:35.177Z,6.90
2022-10-13T01:34:12.713Z,6.90
2022-10-13T01:36:49.667Z,6.90
2022-10-13T01:39:26.686Z,6.90
2022-10-13T01:42:11.440Z,6.90
2022-10-13T01:44:43.367Z,6.90
2022-10-13T01:47:16.962Z,6.90
2022-10-13T01:49:46.731Z,6.90
2022-10-13T01:52:18.396Z,7.00
2022-10-13T01:54:50.732Z,7.00
2022-10-13T01:57:33.071Z,7.00
2022-10-13T02:00:05.431Z,7.00
2022-10-13T02:02:43.439Z,7.00
2022-10-13T02:05:26.952Z,7.10
2022-10-13T02:08:03.904Z,7.10
2022-10-13T02:10:39.961Z,7.20
2022-10-13T02:13:12.876Z,7.20
2022-10-13T02:15:47.418Z,7.20
2022-10-13T02:18:21.424Z,7.30
2022-10-13T02:20:50.473Z,7.40
2022-10-13T02:23:20.416Z,7.40
2022-10-13T02:25:50.488Z,7.50
2022-10-13T02:28:20.582Z,7.50
2022-10-13T02:30:50.309Z,7.60
2022-10-13T02:33:20.388Z,7.70
2022-10-13T02:35:50.545Z,7.70
2022-10-13T02:38:19.007Z,7.80
2022-10-13T02:40:47.916Z,7.80
2022-10-13T02:43:17.045Z,7.80
2022-10-13T02:45:45.819Z,7.80
2022-10-13T02:48:14.527Z,7.80
2022-10-13T02:50:44.777Z,7.90
2022-10-13T02:53:13.321Z,7.90
2022-10-13T02:55:41.754Z,7.90
2022-10-13T02:58:10.248Z,8.00
2022-10-13T03:00:41.180Z,8.00
2022-10-13T03:03:10.057Z,8.10
2022-10-13T03:05:39.115Z,8.10
2022-10-13T03:08:10.185Z,8.20
2022-10-13T03:10:38.733Z,8.30
2022-10-13T03:13:07.228Z,8.30
2022-10-13T03:15:37.420Z,8.40
2022-10-13T03:18:06.508Z,8.40
2022-10-13T03:20:35.390Z,8.50
2022-10-13T03:23:04.315Z,8.60
2022-10-13T03:25:34.599Z,8.70
2022-10-13T03:28:04.242Z,8.80
2022-10-13T03:30:34.174Z,8.80
2022-10-13T03:33:04.117Z,8.90
2022-10-13T03:35:34.143Z,9.00
2022-10-13T03:38:02.621Z,9.10
2022-10-13T03:40:31.735Z,9.20
2022-10-13T03:43:03.156Z,9.30
2022-10-13T03:45:31.818Z,9.30
2022-10-13T03:48:00.966Z,9.40
2022-10-13T03:50:29.524Z,9.40
2022-10-13T03:52:57.993Z,9.50
2022-10-13T03:55:26.648Z,9.50
2022-10-13T03:57:56.563Z,9.50
2022-10-13T04:00:26.745Z,9.60
2022-10-13T04:02:55.441Z,9.60
2022-10-13T04:05:26.583Z,9.70
2022-10-13T04:07:55.325Z,9.70
2022-10-13T04:10:25.806Z,9.70
2022-10-13T04:12:55.382Z,9.70
2022-10-13T04:15:25.508Z,9.80
2022-10-13T04:17:54.869Z,9.80
2022-10-13T04:20:23.463Z,9.90
2022-10-13T04:22:52.063Z,9.90
2022-10-13T04:25:20.978Z,9.90
2022-10-13T04:27:50.470Z,9.90
2022-10-13T04:30:20.156Z,9.90
2022-10-13T04:32:50.139Z,10.00
2022-10-13T04:35:18.946Z,10.00
2022-10-13T04:37:47.402Z,10.00
2022-10-13T04:40:16.517Z,10.00
2022-10-13T04:42:45.449Z,10.00
2022-10-13T04:45:14.648Z,10.00
2022-10-13T04:47:43.222Z,10.00
2022-10-13T04:50:13.116Z,10.00
2022-10-13T04:52:43.036Z,10.00
2022-10-13T04:55:11.760Z,10.00
2022-10-13T04:57:40.987Z,9.90
2022-10-13T05:00:12.001Z,9.90
2022-10-13T05:02:42.423Z,9.90
2022-10-13T05:05:13.534Z,9.90
2022-10-13T05:07:41.975Z,9.90
2022-10-13T05:10:11.084Z,9.90
2022-10-13T05:12:39.590Z,9.90
2022-10-13T05:15:09.321Z,9.90
2022-10-13T05:17:39.467Z,9.90
2022-10-13T05:20:10.442Z,9.90
2022-10-13T05:22:40.996Z,9.90
2022-10-13T05:25:10.937Z,9.90
2022-10-13T05:27:39.487Z,9.90
2022-10-13T05:30:09.869Z,9.90
2022-10-13T05:32:38.892Z,9.90
2022-10-13T05:35:08.642Z,9.90
2022-10-13T05:37:38.425Z,9.90
2022-10-13T05:40:10.315Z,10.00
2022-10-13T05:42:38.799Z,10.00
2022-10-13T05:45:10.906Z,10.00
2022-10-13T05:47:39.512Z,10.00
2022-10-13T05:50:09.385Z,10.00
2022-10-13T05:52:38.796Z,10.00
2022-10-13T05:55:12.317Z,10.00
2022-10-13T05:57:43.853Z,10.10
2022-10-13T06:00:16.166Z,10.10
2022-10-13T06:02:51.449Z,10.10
2022-10-13T06:05:23.892Z,10.10
2022-10-13T06:07:53.613Z,10.10
2022-10-13T06:10:23.640Z,10.10
2022-10-13T06:12:55.497Z,10.10
2022-10-13T06:15:28.022Z,10.10
2022-10-13T06:17:57.452Z,10.10
2022-10-13T06:20:27.706Z,10.10
2022-10-13T06:22:56.653Z,10.10
2022-10-13T06:25:26.754Z,10.20
2022-10-13T06:27:55.693Z,10.10
2022-10-13T06:30:25.814Z,10.10
2022-10-13T06:32:56.316Z,10.10
2022-10-13T06:35:25.145Z,10.10
2022-10-13T06:37:53.658Z,10.10
2022-10-13T06:40:22.191Z,10.10
2022-10-13T06:42:55.673Z,10.10
2022-10-13T06:45:24.835Z,10.00
2022-10-13T06:47:55.457Z,10.00
2022-10-13T06:50:26.733Z,10.00
2022-10-13T06:52:58.445Z,9.90
2022-10-13T06:55:27.861Z,9.90
2022-10-13T06:57:58.214Z,9.90
2022-10-13T07:00:26.842Z,9.90
2022-10-13T07:02:55.946Z,9.90
2022-10-13T07:05:25.922Z,9.90
2022-10-13T07:07:55.158Z,9.90
2022-10-13T07:10:24.295Z,9.90
2022-10-13T07:12:52.922Z,9.90
2022-10-13T07:15:24.856Z,9.90
2022-10-13T07:17:55.923Z,9.90
2022-10-13T07:20:24.849Z,9.90
2022-10-13T07:22:55.133Z,9.90
2022-10-13T07:25:27.104Z,10.00
2022-10-13T07:27:56.646Z,10.00
2022-10-13T07:30:27.755Z,10.10
2022-10-13T07:32:56.367Z,10.20
2022-10-13T07:35:30.471Z,10.30
2022-10-13T07:38:00.645Z,10.40
2022-10-13T07:40:29.480Z,10.50
2022-10-13T07:42:58.449Z,10.60
2022-10-13T07:45:30.220Z,10.70
2022-10-13T07:47:59.644Z,10.70
2022-10-13T07:50:29.949Z,10.80
2022-10-13T07:52:58.957Z,10.80
2022-10-13T07:55:27.854Z,10.90
2022-10-13T07:57:56.444Z,10.90
2022-10-13T08:00:27.893Z,11.00
2022-10-13T08:02:59.233Z,11.00
2022-10-13T08:05:28.457Z,11.10
2022-10-13T08:07:58.580Z,11.20
2022-10-13T08:10:29.547Z,11.20
2022-10-13T08:12:58.708Z,11.30
2022-10-13T08:15:27.998Z,11.40
2022-10-13T08:18:01.751Z,11.50
2022-10-13T08:20:41.014Z,11.60
2022-10-13T08:23:13.630Z,11.70
2022-10-13T08:25:46.061Z,11.80
2022-10-13T08:28:21.224Z,11.90
2022-10-13T08:30:50.638Z,12.00
2022-10-13T08:33:21.337Z,12.10
2022-10-13T08:35:50.694Z,12.20
2022-10-13T08:38:21.072Z,12.30
2022-10-13T08:40:54.695Z,12.30
2022-10-13T08:43:25.581Z,12.40
2022-10-13T08:45:59.220Z,12.40
2022-10-13T08:48:36.435Z,12.40
2022-10-13T08:51:09.121Z,12.40
2022-10-13T08:53:40.415Z,12.50
2022-10-13T08:56:16.074Z,12.50
2022-10-13T08:58:45.381Z,12.50
2022-10-13T09:01:17.549Z,12.50
2022-10-13T09:03:53.253Z,12.50
2022-10-13T09:06:29.001Z,12.60
2022-10-13T09:08:59.946Z,12.60
2022-10-13T09:11:32.609Z,12.60
2022-10-13T09:14:04.589Z,12.70
2022-10-13T09:16:39.076Z,12.70
2022-10-13T09:19:23.799Z,12.70
2022-10-13T09:21:56.205Z,12.80
2022-10-13T09:24:27.587Z,12.80
2022-10-13T09:27:10.916Z,12.80
2022-10-13T09:29:42.272Z,12.80
2022-10-13T09:32:24.037Z,12.90
2022-10-13T09:34:55.674Z,12.90
2022-10-13T09:37:31.633Z,12.90
2022-10-13T09:40:24.035Z,13.00
2022-10-13T09:42:54.899Z,13.10
2022-10-13T09:45:27.659Z,13.30
2022-10-13T09:47:58.755Z,13.40
2022-10-13T09:50:33.448Z,13.50
2022-10-13T09:53:20.222Z,13.70
2022-10-13T09:55:50.135Z,13.80
2022-10-13T09:58:26.899Z,13.90
2022-10-13T10:00:57.741Z,14.00
2022-10-13T10:03:31.959Z,14.10
2022-10-13T10:06:05.246Z,14.20
2022-10-13T10:09:02.169Z,14.30
2022-10-13T10:11:34.934Z,14.40
2022-10-13T10:14:14.127Z,14.50
2022-10-13T10:16:53.674Z,14.60
2022-10-13T10:19:28.709Z,14.70
2022-10-13T10:22:05.971Z,14.80
2022-10-13T10:24:43.348Z,14.90
2022-10-13T10:29:56.304Z,15.00
2022-10-13T10:32:36.652Z,15.00
2022-10-13T10:35:14.779Z,15.10
2022-10-13T10:38:05.512Z,15.10
2022-10-13T10:40:45.572Z,15.10
2022-10-13T10:43:51.825Z,15.20
2022-10-13T10:46:24.551Z,15.30
2022-10-13T10:48:58.769Z,15.40
2022-10-13T10:51:34.335Z,15.40
2022-10-13T10:54:18.857Z,15.60
2022-10-13T10:56:57.597Z,15.70
2022-10-13T10:59:51.556Z,15.80
2022-10-13T11:02:58.744Z,15.90
2022-10-13T11:05:32.325Z,15.90
2022-10-13T11:08:04.978Z,15.90
2022-10-13T11:10:35.306Z,16.00
2022-10-13T11:13:27.822Z,16.00
2022-10-13T11:15:57.401Z,16.10
2022-10-13T11:18:59.469Z,16.20
2022-10-13T11:21:28.494Z,16.40
2022-10-13T11:24:01.814Z,16.40
2022-10-13T11:26:44.370Z,16.50
2022-10-13T11:29:21.661Z,16.60
2022-10-13T11:31:53.563Z,16.60
2022-10-13T11:34:31.248Z,16.70
2022-10-13T11:37:02.292Z,16.70
2022-10-13T11:40:02.564Z,16.80
2022-10-13T11:43:08.202Z,16.90
2022-10-13T11:45:58.468Z,16.90
2022-10-13T11:49:04.215Z,17.00
2022-10-13T11:51:43.316Z,17.10
2022-10-13T11:54:25.463Z,17.10
2022-10-13T11:56:56.356Z,17.20
2022-10-13T11:59:31.307Z,17.20
2022-10-13T12:02:01.685Z,17.20
2022-10-13T12:04:32.271Z,17.30
2022-10-13T12:07:05.539Z,17.20
2022-10-13T12:09:36.446Z,17.20
2022-10-13T12:12:13.036Z,17.20
2022-10-13T12:14:45.240Z,17.20
2022-10-13T12:17:24.302Z,17.20
2022-10-13T12:19:53.793Z,17.20
2022-10-13T12:22:22.691Z,17.10
2022-10-13T12:25:02.719Z,17.10
2022-10-13T12:27:33.866Z,17.00
2022-10-13T12:30:05.590Z,16.90
2022-10-13T12:32:39.273Z,16.90
2022-10-13T12:35:21.242Z,16.70
2022-10-13T12:37:50.876Z,16.60
2022-10-13T12:40:21.052Z,16.50
2022-10-13T12:42:51.323Z,16.40
2022-10-13T12:45:24.609Z,16.30
2022-10-13T12:47:55.384Z,16.20
2022-10-13T12:50:39.476Z,16.20
2022-10-13T12:53:22.174Z,16.10
2022-10-13T12:55:59.142Z,16.00
2022-10-13T12:58:32.142Z,15.90
2022-10-13T13:01:11.249Z,15.80
2022-10-13T13:03:43.767Z,15.70
2022-10-13T13:06:25.405Z,15.50
2022-10-13T13:09:28.691Z,15.30
2022-10-13T13:12:19.586Z,15.00
2022-10-13T13:14:52.411Z,14.80
2022-10-13T13:17:53.293Z,14.70
2022-10-13T13:20:39.205Z,14.60
2022-10-13T13:23:08.976Z,14.60
2022-10-13T13:25:38.055Z,14.60
2022-10-13T13:28:15.501Z,14.60
2022-10-13T13:30:45.414Z,14.60
2022-10-13T13:33:18.533Z,14.50
2022-10-13T13:35:50.191Z,14.50
2022-10-13T13:38:22.066Z,14.60
2022-10-13T13:40:52.485Z,14.50
2022-10-13T13:43:23.690Z,14.60
2022-10-13T13:45:53.152Z,14.50
2022-10-13T13:48:25.183Z,14.40
2022-10-13T13:50:54.370Z,14.40
2022-10-13T13:53:25.011Z,14.40
2022-10-13T13:55:55.820Z,14.30
2022-10-13T13:58:25.646Z,14.30
2022-10-13T14:00:57.838Z,14.40
2022-10-13T14:03:29.160Z,14.40
2022-10-13T14:06:00.580Z,14.30
2022-10-13T14:08:32.403Z,14.30
2022-10-13T14:11:01.485Z,14.30
2022-10-13T14:13:30.607Z,14.30
2022-10-13T14:16:01.448Z,14.30
2022-10-13T14:18:33.266Z,14.30
2022-10-13T14:21:02.463Z,14.30
2022-10-13T14:23:32.997Z,14.20
2022-10-13T14:26:06.326Z,14.30
2022-10-13T14:28:36.764Z,14.30
2022-10-13T14:31:10.498Z,14.20
2022-10-13T14:33:42.620Z,14.20
2022-10-13T14:36:14.318Z,14.20
2022-10-13T14:38:44.651Z,14.10
2022-10-13T14:41:13.786Z,14.10
2022-10-13T14:43:43.386Z,14.10
2022-10-13T22:22:04.561Z,12.80
2022-10-13T22:24:33.628Z,12.80
2022-10-13T22:27:04.952Z,12.80
2022-10-13T22:29:34.652Z,12.80
2022-10-13T22:32:06.407Z,12.80
2022-10-13T22:34:35.548Z,12.80
2022-10-13T22:37:05.716Z,12.80
2022-10-13T22:39:34.556Z,12.80
2022-10-13T22:42:03.250Z,12.80
2022-10-13T22:44:32.649Z,12.80
2022-10-13T22:47:01.378Z,12.80
2022-10-13T22:49:30.240Z,12.80
2022-10-13T22:52:00.480Z,12.80
2022-10-13T22:54:31.388Z,12.80
2022-10-13T22:57:00.691Z,12.80
2022-10-13T22:59:29.812Z,12.70
2022-10-13T23:02:02.669Z,12.70
2022-10-13T23:04:33.449Z,12.70
2022-10-13T23:07:02.922Z,12.70
2022-10-13T23:09:34.144Z,12.70
2022-10-13T23:12:03.686Z,12.70
2022-10-13T23:14:32.825Z,12.70
2022-10-13T23:17:05.779Z,12.70
2022-10-13T23:19:38.155Z,12.70
2022-10-13T23:22:07.479Z,12.60
2022-10-13T23:24:37.966Z,12.60
2022-10-13T23:27:06.653Z,12.60
2022-10-13T23:29:35.303Z,12.60
2022-10-13T23:32:09.509Z,12.60
2022-10-13T23:34:42.506Z,12.60
2022-10-13T23:37:11.522Z,12.60
2022-10-13T23:39:44.104Z,12.60
2022-10-13T23:42:14.327Z,12.60
2022-10-13T23:44:42.891Z,12.60
2022-10-13T23:47:11.609Z,12.60
2022-10-13T23:49:40.386Z,12.60
2022-10-13T23:52:11.052Z,12.60
2022-10-13T23:54:41.598Z,12.60
2022-10-13T23:57:13.233Z,12.60
2022-10-13T23:59:42.341Z,12.60
